Time;durP1;ratioP1;P1;durP2;ratioP2;P2;SDS_P1;SDS_P2;PMS_P1;PMS_P2;Temp;Humidity;BMP_temperature;BMP_pressure;BME280_temperature;BME280_humidity;BME280_pressure;Samples;Min_cycle;Max_cycle;Signal;HPM_P1;HPM_P2
2021/06/08 00:01:48;;;;;;;33.95;24.42;;;12.50;99.90;;;;;;6155567;23;20080;-80
2021/06/08 00:04:15;;;;;;;30.42;22.27;;;12.40;99.90;;;;;;6131797;23;20330;-82
2021/06/08 00:06:41;;;;;;;30.55;22.83;;;12.40;99.90;;;;;;6193595;23;20062;-81
2021/06/08 00:09:08;;;;;;;34.20;24.73;;;12.40;99.90;;;;;;6182371;23;20096;-81
2021/06/08 00:11:35;;;;;;;33.17;24.33;;;12.50;99.90;;;;;;6167874;23;20020;-81
2021/06/08 00:14:01;;;;;;;33.85;24.40;;;12.50;99.90;;;;;;6162463;23;20017;-82
2021/06/08 00:16:27;;;;;;;33.90;24.23;;;12.50;99.90;;;;;;6151806;23;20099;-80
2021/06/08 00:18:53;;;;;;;43.90;27.25;;;12.60;99.90;;;;;;6161638;23;20080;-81
2021/06/08 00:21:19;;;;;;;37.17;23.83;;;12.50;99.90;;;;;;6162359;23;20477;-80
2021/06/08 00:23:44;;;;;;;35.28;24.33;;;12.60;99.90;;;;;;6127027;23;20477;-81
2021/06/08 00:26:11;;;;;;;40.65;27.05;;;12.50;99.90;;;;;;6151595;23;20096;-81
2021/06/08 00:28:37;;;;;;;45.08;28.13;;;12.50;99.90;;;;;;6186982;23;20430;-81
2021/06/08 00:31:03;;;;;;;43.47;28.70;;;12.50;99.90;;;;;;6153581;23;20017;-81
2021/06/08 00:33:30;;;;;;;40.28;26.73;;;12.40;99.90;;;;;;6151472;23;20395;-81
2021/06/08 00:35:56;;;;;;;36.08;25.30;;;12.60;99.90;;;;;;6185783;23;20386;-82
2021/06/08 00:38:24;;;;;;;35.88;24.60;;;12.50;99.90;;;;;;6185735;23;20021;-81
2021/06/08 00:40:50;;;;;;;38.47;24.50;;;12.40;99.90;;;;;;6185709;23;20018;-81
2021/06/08 00:43:23;;;;;;;39.63;26.17;;;12.40;99.90;;;;;;6151989;23;20013;-82
2021/06/08 00:45:50;;;;;;;40.20;26.45;;;12.50;99.90;;;;;;6153541;23;20017;-81
2021/06/08 00:48:17;;;;;;;41.33;27.33;;;12.50;99.90;;;;;;6150891;23;20040;-82
2021/06/08 00:51:00;;;;;;;40.00;26.23;;;12.40;99.90;;;;;;6163212;23;20414;-82
2021/06/08 00:53:26;;;;;;;39.88;26.42;;;12.50;99.90;;;;;;6153874;23;20024;-82
2021/06/08 00:55:52;;;;;;;38.95;26.38;;;12.50;99.90;;;;;;6163823;23;20014;-82
2021/06/08 00:58:18;;;;;;;38.72;25.90;;;12.50;99.90;;;;;;6176504;23;20120;-82
2021/06/08 01:00:44;;;;;;;37.95;26.77;;;12.50;99.90;;;;;;6176015;23;20446;-81
2021/06/08 01:03:10;;;;;;;47.38;29.65;;;12.40;99.90;;;;;;6157775;23;20021;-82
2021/06/08 01:05:36;;;;;;;45.72;29.38;;;12.50;99.90;;;;;;6162947;23;20388;-82
2021/06/08 01:08:02;;;;;;;53.08;30.50;;;12.40;99.90;;;;;;6184916;23;20016;-82
2021/06/08 01:10:28;;;;;;;45.40;29.38;;;12.40;99.90;;;;;;6162924;23;20014;-81
2021/06/08 01:12:54;;;;;;;49.15;30.00;;;12.50;99.90;;;;;;6152316;23;20052;-82
2021/06/08 01:15:22;;;;;;;42.67;27.45;;;12.40;99.90;;;;;;6169242;23;20020;-81
2021/06/08 01:17:48;;;;;;;38.53;25.67;;;12.50;99.90;;;;;;6194009;23;20028;-82
2021/06/08 01:20:16;;;;;;;40.58;28.02;;;12.40;99.90;;;;;;6132377;23;20096;-81
2021/06/08 01:22:43;;;;;;;35.88;25.73;;;12.50;99.90;;;;;;6182830;23;20008;-81
2021/06/08 01:25:09;;;;;;;42.75;27.20;;;12.50;99.90;;;;;;6155847;23;20008;-81
2021/06/08 01:27:36;;;;;;;42.83;27.45;;;12.40;99.90;;;;;;6183091;23;20092;-81
2021/06/08 01:30:25;;;;;;;41.40;27.08;;;12.40;99.90;;;;;;6139639;23;20017;-82
2021/06/08 01:32:52;;;;;;;39.83;27.20;;;12.40;99.90;;;;;;6166247;23;20414;-81
2021/06/08 01:35:19;;;;;;;45.22;29.90;;;12.40;99.90;;;;;;6165551;23;20019;-81
2021/06/08 01:37:46;;;;;;;47.92;30.80;;;12.30;99.90;;;;;;6155263;23;20024;-81
2021/06/08 01:40:16;;;;;;;48.20;30.10;;;12.40;99.90;;;;;;6191683;23;20009;-82
2021/06/08 01:42:42;;;;;;;45.92;30.75;;;12.40;99.90;;;;;;6156089;23;20013;-82
2021/06/08 01:45:09;;;;;;;47.15;31.50;;;12.50;99.90;;;;;;6189898;23;20021;-81
2021/06/08 01:47:34;;;;;;;43.65;29.98;;;12.50;99.90;;;;;;6182245;23;20013;-82
2021/06/08 01:50:01;;;;;;;50.00;32.83;;;12.50;99.90;;;;;;6156397;23;20020;-82
2021/06/08 01:52:47;;;;;;;56.08;35.80;;;12.60;99.90;;;;;;6131114;23;20024;-82
2021/06/08 01:55:29;;;;;;;75.70;41.58;;;12.60;99.90;;;;;;6156635;23;20303;-82
2021/06/08 01:58:23;;;;;;;85.63;44.85;;;12.50;99.90;;;;;;6166908;23;20109;-82
2021/06/08 02:01:00;;;;;;;79.38;44.05;;;12.40;99.90;;;;;;6185748;23;20044;-82
2021/06/08 02:03:36;;;;;;;98.80;49.70;;;12.50;99.90;;;;;;6156137;23;20016;-82
2021/06/08 02:06:11;;;;;;;96.28;51.70;;;12.50;99.90;;;;;;6192245;23;20016;-82
2021/06/08 02:08:49;;;;;;;112.85;54.35;;;12.50;99.90;;;;;;6182672;23;20027;-81
2021/06/08 02:11:35;;;;;;;113.80;55.97;;;12.50;99.90;;;;;;6155443;23;20013;-82
2021/06/08 02:14:05;;;;;;;120.25;57.88;;;12.60;99.90;;;;;;6192406;23;20013;-81
2021/06/08 02:16:45;;;;;;;110.30;56.50;;;12.60;99.90;;;;;;6152691;23;20021;-78
2021/06/08 02:19:13;;;;;;;104.35;54.33;;;12.60;99.90;;;;;;6151929;23;20076;-80
2021/06/08 02:21:48;;;;;;;120.13;58.60;;;12.70;99.90;;;;;;6152470;23;20014;-80
2021/06/08 02:24:20;;;;;;;120.85;60.42;;;12.70;99.90;;;;;;6162238;23;20021;-80
2021/06/08 02:26:48;;;;;;;120.28;59.50;;;12.80;99.90;;;;;;6176831;23;20014;-80
2021/06/08 02:29:15;;;;;;;116.85;57.33;;;12.60;99.90;;;;;;6152691;23;20457;-81
2021/06/08 02:31:43;;;;;;;105.85;52.67;;;12.70;99.90;;;;;;6151376;23;20508;-80
2021/06/08 02:34:12;;;;;;;72.20;41.92;;;12.70;99.90;;;;;;6185602;23;20116;-80
2021/06/08 02:36:58;;;;;;;70.65;39.35;;;12.70;99.90;;;;;;6150906;23;20048;-81
2021/06/08 02:39:26;;;;;;;62.72;36.67;;;12.60;99.90;;;;;;6175823;23;20092;-81
2021/06/08 02:41:55;;;;;;;57.65;35.17;;;12.60;99.90;;;;;;6175772;23;20048;-81
2021/06/08 02:44:23;;;;;;;58.95;35.55;;;12.50;99.90;;;;;;6163035;23;20016;-81
2021/06/08 02:46:55;;;;;;;54.17;32.95;;;12.40;99.90;;;;;;6161787;23;20097;-81
2021/06/08 02:49:22;;;;;;;60.38;34.65;;;12.40;99.90;;;;;;6185258;23;20089;-81
2021/06/08 02:51:48;;;;;;;49.72;30.60;;;12.40;99.90;;;;;;6175959;23;20025;-81
2021/06/08 02:54:16;;;;;;;49.97;30.02;;;12.30;99.90;;;;;;6183841;23;20014;-80
2021/06/08 02:56:44;;;;;;;46.63;29.48;;;12.30;99.90;;;;;;6162069;23;20450;-81
2021/06/08 02:59:13;;;;;;;42.35;28.13;;;12.30;99.90;;;;;;6161166;23;20009;-81
2021/06/08 03:01:45;;;;;;;47.15;27.88;;;12.40;99.90;;;;;;6150001;23;20307;-81
2021/06/08 03:04:12;;;;;;;42.78;27.42;;;12.30;99.90;;;;;;6174582;23;20017;-81
2021/06/08 03:06:46;;;;;;;43.47;27.02;;;12.30;99.90;;;;;;6174440;23;20067;-80
2021/06/08 03:09:14;;;;;;;42.67;27.67;;;12.40;99.90;;;;;;6148693;23;20033;-81
2021/06/08 03:12:02;;;;;;;38.10;26.23;;;12.30;99.90;;;;;;6172600;23;20017;-81
2021/06/08 03:14:29;;;;;;;47.78;29.05;;;12.30;99.90;;;;;;6151746;23;20047;-81
2021/06/08 03:16:59;;;;;;;43.90;27.25;;;12.40;99.90;;;;;;6180326;23;20017;-81
2021/06/08 03:19:29;;;;;;;39.13;23.38;;;12.40;99.90;;;;;;6155056;23;20088;-81
2021/06/08 03:22:03;;;;;;;32.00;21.40;;;12.40;99.90;;;;;;6179909;23;20043;-81
2021/06/08 03:24:33;;;;;;;32.15;21.13;;;12.30;99.90;;;;;;6189606;23;20052;-81
2021/06/08 03:27:01;;;;;;;30.02;21.15;;;12.40;99.90;;;;;;6189493;23;20437;-81
2021/06/08 03:29:31;;;;;;;28.92;21.20;;;12.40;99.90;;;;;;6188767;23;20084;-81
2021/06/08 03:31:57;;;;;;;33.17;22.30;;;12.50;99.90;;;;;;6181374;23;20032;-81
2021/06/08 03:34:24;;;;;;;37.22;22.52;;;12.60;99.90;;;;;;6181477;23;20109;-81
2021/06/08 03:36:53;;;;;;;31.60;20.67;;;12.40;99.90;;;;;;6190081;23;20009;-80
2021/06/08 03:39:21;;;;;;;32.47;21.63;;;12.40;99.90;;;;;;6130680;23;20017;-81
2021/06/08 03:41:48;;;;;;;34.67;21.75;;;12.40;99.90;;;;;;6189431;23;20116;-80
2021/06/08 03:44:18;;;;;;;33.75;22.55;;;12.40;99.90;;;;;;6154630;23;20095;-81
2021/06/08 03:46:46;;;;;;;40.45;25.75;;;12.50;99.90;;;;;;6154912;23;20017;-81
2021/06/08 03:49:14;;;;;;;37.10;25.10;;;12.50;99.90;;;;;;6191868;23;20067;-81
2021/06/08 03:51:42;;;;;;;39.70;23.98;;;12.50;99.90;;;;;;6188973;23;20883;-81
2021/06/08 03:54:10;;;;;;;40.88;25.08;;;12.50;99.90;;;;;;6179708;23;20054;-81
2021/06/08 03:56:41;;;;;;;41.15;24.33;;;12.50;99.90;;;;;;6180797;23;20013;-81
2021/06/08 03:59:14;;;;;;;37.08;23.65;;;12.50;99.90;;;;;;6180320;23;20021;-81
2021/06/08 04:01:42;;;;;;;36.40;23.58;;;12.40;99.90;;;;;;6179674;23;20020;-81
2021/06/08 04:04:08;;;;;;;43.08;25.77;;;12.50;99.90;;;;;;6153580;23;20043;-81
2021/06/08 04:06:35;;;;;;;37.65;25.08;;;12.50;99.90;;;;;;6164757;23;20067;-81
2021/06/08 04:09:08;;;;;;;43.13;26.98;;;12.50;99.90;;;;;;6178117;23;20017;-81
2021/06/08 04:11:36;;;;;;;43.47;26.38;;;12.50;99.90;;;;;;6154389;23;20024;-81
2021/06/08 04:14:02;;;;;;;39.92;26.15;;;12.50;99.90;;;;;;6155986;23;20032;-81
2021/06/08 04:16:33;;;;;;;37.85;24.15;;;12.50;99.90;;;;;;6156744;23;20056;-81
2021/06/08 04:19:00;;;;;;;37.38;25.45;;;12.50;99.90;;;;;;6156967;23;20013;-80
2021/06/08 04:21:27;;;;;;;36.42;25.13;;;12.50;99.90;;;;;;6157929;23;20009;-81
2021/06/08 04:23:57;;;;;;;36.90;26.10;;;12.60;99.90;;;;;;6190768;23;20076;-81
2021/06/08 04:26:24;;;;;;;34.10;24.80;;;12.60;99.90;;;;;;6157761;23;20063;-81
2021/06/08 04:28:50;;;;;;;41.33;26.52;;;12.70;99.90;;;;;;6132636;23;20009;-81
2021/06/08 04:31:27;;;;;;;36.80;25.58;;;12.70;99.90;;;;;;6157492;23;20344;-81
2021/06/08 04:33:53;;;;;;;35.10;25.25;;;12.80;99.90;;;;;;6192902;23;20019;-81
2021/06/08 04:36:20;;;;;;;31.88;23.33;;;12.80;99.90;;;;;;6193702;23;20023;-81
2021/06/08 04:38:46;;;;;;;34.33;25.02;;;12.90;99.90;;;;;;6181570;23;20013;-81
2021/06/08 04:41:13;;;;;;;36.30;26.80;;;13.00;99.90;;;;;;6181507;23;20017;-81
2021/06/08 04:43:40;;;;;;;35.67;25.67;;;13.00;99.90;;;;;;6191743;23;20017;-81
2021/06/08 04:46:13;;;;;;;36.70;24.35;;;13.10;99.90;;;;;;6186492;23;20117;-81
2021/06/08 04:48:44;;;;;;;35.72;25.67;;;13.10;99.90;;;;;;6156365;23;20013;-81
2021/06/08 04:51:30;;;;;;;31.25;23.02;;;13.20;99.90;;;;;;6162502;23;20016;-81
2021/06/08 04:54:08;;;;;;;33.80;22.33;;;13.20;99.90;;;;;;6155832;23;20055;-81
2021/06/08 04:56:34;;;;;;;29.88;21.73;;;13.20;99.90;;;;;;6195326;23;20088;-81
2021/06/08 04:59:00;;;;;;;31.17;22.00;;;13.30;99.90;;;;;;6183268;23;20425;-81
2021/06/08 05:01:36;;;;;;;35.90;23.92;;;13.30;99.90;;;;;;6132252;23;20072;-82
2021/06/08 05:04:11;;;;;;;36.20;23.50;;;13.20;99.90;;;;;;6158089;23;20020;-81
2021/06/08 05:06:41;;;;;;;36.42;24.75;;;13.20;99.90;;;;;;6132327;23;20024;-81
2021/06/08 05:09:13;;;;;;;38.75;25.58;;;13.60;99.90;;;;;;6180149;23;20156;-81
2021/06/08 05:11:50;;;;;;;36.30;25.83;;;13.20;99.90;;;;;;6181366;23;20159;-81
2021/06/08 05:14:17;;;;;;;45.55;29.02;;;13.20;99.90;;;;;;6191706;23;20021;-81
2021/06/08 05:16:50;;;;;;;46.50;30.63;;;13.20;99.90;;;;;;6183294;23;20028;-81
2021/06/08 05:19:18;;;;;;;54.20;33.08;;;13.10;99.90;;;;;;6156522;23;20056;-81
2021/06/08 05:21:55;;;;;;;50.03;31.88;;;13.10;99.90;;;;;;6169286;23;20024;-80
2021/06/08 05:24:23;;;;;;;57.67;35.15;;;13.20;99.90;;;;;;6156835;23;20294;-78
2021/06/08 05:26:52;;;;;;;53.17;34.17;;;13.10;99.90;;;;;;6183953;23;20092;-77
2021/06/08 05:29:23;;;;;;;64.38;37.47;;;13.10;99.90;;;;;;6133386;23;20060;-77
2021/06/08 05:31:50;;;;;;;67.60;40.72;;;13.10;99.90;;;;;;6194461;23;20108;-79
2021/06/08 05:34:20;;;;;;;60.22;37.22;;;13.10;99.90;;;;;;6184918;23;20021;-80
2021/06/08 05:36:47;;;;;;;64.57;39.08;;;13.10;99.90;;;;;;6168102;23;20323;-81
2021/06/08 05:39:12;;;;;;;62.88;38.97;;;13.00;99.90;;;;;;6155344;23;20075;-77
2021/06/08 05:41:39;;;;;;;62.28;39.05;;;13.00;99.90;;;;;;6156278;23;20484;-78
2021/06/08 05:44:10;;;;;;;65.25;40.92;;;13.00;99.90;;;;;;6167015;23;20441;-77
2021/06/08 05:46:37;;;;;;;73.20;43.63;;;13.10;99.90;;;;;;6183651;23;20028;-80
2021/06/08 05:49:07;;;;;;;69.38;43.53;;;13.10;99.90;;;;;;6194565;23;20013;-78
2021/06/08 05:51:54;;;;;;;67.32;42.63;;;13.20;99.90;;;;;;6161338;23;20067;-79
2021/06/08 05:54:21;;;;;;;69.90;43.05;;;13.30;99.90;;;;;;6157297;23;20053;-79
2021/06/08 05:56:48;;;;;;;74.70;44.97;;;13.40;99.90;;;;;;6155815;23;20013;-79
2021/06/08 05:59:15;;;;;;;65.10;42.42;;;13.50;99.90;;;;;;6166816;23;20433;-79
2021/06/08 06:01:41;;;;;;;66.78;40.83;;;13.60;99.90;;;;;;6159660;23;20096;-81
2021/06/08 06:04:11;;;;;;;70.40;43.30;;;13.60;99.90;;;;;;6186630;23;20021;-80
2021/06/08 06:06:39;;;;;;;69.68;43.60;;;13.60;99.90;;;;;;6157353;23;20021;-80
2021/06/08 06:09:05;;;;;;;70.25;43.50;;;13.70;99.90;;;;;;6156474;23;20071;-79
2021/06/08 06:11:32;;;;;;;70.85;42.20;;;13.70;99.90;;;;;;6156733;23;20448;-78
2021/06/08 06:14:02;;;;;;;67.43;42.50;;;13.60;99.90;;;;;;6182981;23;20066;-79
2021/06/08 06:16:38;;;;;;;65.78;41.28;;;13.60;99.90;;;;;;6151513;23;20092;-80
2021/06/08 06:19:06;;;;;;;55.08;37.28;;;13.70;99.90;;;;;;6175954;23;20022;-79
2021/06/08 06:21:56;;;;;;;57.30;36.35;;;13.90;99.90;;;;;;6151385;23;20025;-79
2021/06/08 06:24:27;;;;;;;52.92;36.33;;;13.90;99.90;;;;;;6164105;23;20064;-80
2021/06/08 06:26:55;;;;;;;49.90;34.10;;;14.00;99.90;;;;;;6164521;23;20016;-80
2021/06/08 06:29:24;;;;;;;48.50;33.08;;;14.20;99.90;;;;;;6186846;23;20013;-79
2021/06/08 06:32:06;;;;;;;47.28;33.22;;;14.20;99.90;;;;;;6182995;23;20028;-79
2021/06/08 06:34:32;;;;;;;45.70;31.27;;;14.30;99.90;;;;;;6152882;23;20063;-78
2021/06/08 06:36:59;;;;;;;48.92;32.33;;;14.30;99.90;;;;;;6162519;23;20128;-78
2021/06/08 06:39:27;;;;;;;38.15;28.73;;;14.50;99.90;;;;;;6151102;23;20013;-78
2021/06/08 06:41:56;;;;;;;41.78;30.77;;;14.70;99.90;;;;;;6163927;23;20013;-78
2021/06/08 06:44:24;;;;;;;42.90;30.90;;;14.70;99.90;;;;;;6176310;23;20075;-77
2021/06/08 06:46:52;;;;;;;45.70;32.50;;;14.80;99.90;;;;;;6156567;23;20025;-76
2021/06/08 06:49:20;;;;;;;42.92;31.77;;;14.80;99.90;;;;;;6175816;23;20028;-78
2021/06/08 06:51:48;;;;;;;41.17;30.23;;;14.90;99.90;;;;;;6153071;23;20018;-79
2021/06/08 06:54:17;;;;;;;36.00;19.38;;;15.20;99.90;;;;;;6151222;23;20022;-77
2021/06/08 06:56:49;;;;;;;32.70;22.13;;;15.80;99.90;;;;;;6175868;23;20548;-76
2021/06/08 06:59:15;;;;;;;30.50;23.15;;;16.40;99.90;;;;;;6163272;23;20311;-77
2021/06/08 07:01:44;;;;;;;33.00;23.48;;;16.40;99.90;;;;;;6175811;23;20021;-78
2021/06/08 07:04:11;;;;;;;32.72;23.98;;;16.60;99.90;;;;;;6187365;23;20049;-75
2021/06/08 07:06:39;;;;;;;33.13;18.83;;;16.90;99.90;;;;;;6178343;23;20414;-77
2021/06/08 07:09:06;;;;;;;28.90;18.00;;;17.60;99.90;;;;;;6181742;23;20014;-80
2021/06/08 07:11:32;;;;;;;22.08;17.23;;;18.00;99.90;;;;;;6188402;23;20041;-75
2021/06/08 07:13:58;;;;;;;36.22;25.88;;;18.20;99.90;;;;;;6191391;23;20022;-79
2021/06/08 07:16:26;;;;;;;32.97;25.63;;;18.20;99.90;;;;;;6139968;23;20520;-79
2021/06/08 07:18:53;;;;;;;31.35;25.50;;;17.70;99.90;;;;;;6162518;23;20092;-78
2021/06/08 07:21:22;;;;;;;32.90;23.58;;;17.10;99.90;;;;;;6162931;23;20013;-78
2021/06/08 07:23:53;;;;;;;32.50;23.95;;;16.70;99.90;;;;;;6162486;23;20017;-81
2021/06/08 07:26:22;;;;;;;32.50;25.02;;;16.40;99.90;;;;;;6151529;23;20442;-77
2021/06/08 07:29:13;;;;;;;30.25;24.67;;;16.20;99.90;;;;;;6183171;23;20098;-78
2021/06/08 07:31:47;;;;;;;29.33;22.10;;;16.10;99.90;;;;;;6175778;23;20060;-80
2021/06/08 07:34:31;;;;;;;29.65;24.02;;;16.00;99.90;;;;;;6126315;23;20051;-79
2021/06/08 07:36:58;;;;;;;35.70;26.65;;;16.00;99.90;;;;;;6150644;23;20017;-80
2021/06/08 07:39:52;;;;;;;35.63;26.92;;;16.00;99.90;;;;;;6151202;23;20018;-78
2021/06/08 07:42:42;;;;;;;36.00;25.73;;;16.20;99.90;;;;;;6185476;23;20294;-78
2021/06/08 07:45:20;;;;;;;34.70;25.13;;;16.00;99.90;;;;;;6163285;23;20030;-77
2021/06/08 07:48:12;;;;;;;36.15;26.05;;;15.90;99.90;;;;;;6150249;23;20439;-78
2021/06/08 07:50:50;;;;;;;34.38;25.65;;;16.00;99.90;;;;;;6186241;23;20020;-78
2021/06/08 07:53:20;;;;;;;37.35;26.00;;;16.00;99.90;;;;;;6177697;23;20017;-78
2021/06/08 07:55:49;;;;;;;38.10;26.15;;;16.00;99.90;;;;;;6177795;23;20013;-79
2021/06/08 07:58:25;;;;;;;38.65;26.45;;;16.00;99.90;;;;;;6153432;23;20043;-79
2021/06/08 08:00:58;;;;;;;41.28;27.20;;;16.10;99.90;;;;;;6177731;23;20025;-78
2021/06/08 08:03:45;;;;;;;29.88;23.73;;;16.30;99.90;;;;;;6154024;23;20049;-79
2021/06/08 08:06:12;;;;;;;36.15;24.95;;;16.30;99.90;;;;;;6175550;23;20018;-79
2021/06/08 08:08:54;;;;;;;33.88;24.33;;;16.30;99.90;;;;;;6131787;23;20377;-80
2021/06/08 08:11:24;;;;;;;32.88;24.25;;;16.30;99.90;;;;;;6154538;23;20411;-80
2021/06/08 08:14:12;;;;;;;35.33;26.23;;;16.30;99.90;;;;;;6155669;23;20010;-80
2021/06/08 08:17:00;;;;;;;36.13;25.25;;;16.50;99.90;;;;;;6153663;23;20301;-79
2021/06/08 08:19:46;;;;;;;34.92;25.05;;;16.60;99.90;;;;;;6133842;23;20021;-79
2021/06/08 08:22:32;;;;;;;31.85;24.00;;;16.70;99.90;;;;;;6174666;23;20021;-80
2021/06/08 08:25:18;;;;;;;37.50;25.48;;;16.60;99.90;;;;;;6154537;23;20407;-80
2021/06/08 08:28:05;;;;;;;35.45;24.10;;;16.80;99.90;;;;;;6153604;23;20099;-80
2021/06/08 08:30:41;;;;;;;39.55;26.05;;;16.90;99.90;;;;;;6152972;23;20390;-80
2021/06/08 08:33:15;;;;;;;36.93;25.17;;;17.00;99.90;;;;;;6187633;23;20025;-79
2021/06/08 08:35:55;;;;;;;46.30;28.40;;;17.10;99.90;;;;;;6165442;23;20064;-79
2021/06/08 08:38:21;;;;;;;37.63;26.63;;;17.30;99.90;;;;;;6177157;23;20508;-78
2021/06/08 08:40:48;;;;;;;42.92;27.30;;;17.50;99.90;;;;;;6153309;23;20399;-79
2021/06/08 08:43:16;;;;;;;41.53;27.88;;;17.70;99.90;;;;;;6155160;23;20021;-79
2021/06/08 08:45:48;;;;;;;37.28;27.13;;;18.00;99.90;;;;;;6177405;23;20501;-79
2021/06/08 08:48:16;;;;;;;39.17;27.10;;;18.10;99.90;;;;;;6188276;23;20018;-79
2021/06/08 08:50:50;;;;;;;41.05;26.27;;;18.20;99.90;;;;;;6177111;23;20017;-79
2021/06/08 08:53:23;;;;;;;38.97;26.75;;;18.50;99.90;;;;;;6163100;23;20033;-79
2021/06/08 08:56:10;;;;;;;38.10;26.20;;;18.70;99.90;;;;;;6153673;23;20462;-80
2021/06/08 08:58:48;;;;;;;33.65;24.35;;;18.70;99.90;;;;;;6153113;23;20020;-80
2021/06/08 09:01:36;;;;;;;36.15;23.90;;;18.80;99.90;;;;;;6153548;23;20100;-79
2021/06/08 09:04:04;;;;;;;43.83;26.23;;;18.80;99.90;;;;;;6178124;23;20013;-80
2021/06/08 09:06:33;;;;;;;37.45;25.02;;;18.90;99.90;;;;;;6165040;23;20013;-80
2021/06/08 09:09:00;;;;;;;35.92;25.52;;;19.00;99.90;;;;;;6153416;23;20022;-80
2021/06/08 09:11:32;;;;;;;37.03;24.42;;;18.80;99.90;;;;;;6153476;23;20013;-80
2021/06/08 09:13:58;;;;;;;32.17;24.02;;;18.80;99.90;;;;;;6153180;23;20021;-79
2021/06/08 09:16:24;;;;;;;30.40;22.45;;;18.90;99.90;;;;;;6178448;23;20050;-80
2021/06/08 09:18:52;;;;;;;32.72;22.23;;;18.90;99.90;;;;;;6165097;23;20021;-78
2021/06/08 09:21:22;;;;;;;29.42;20.55;;;19.00;99.90;;;;;;6155094;23;20024;-79
2021/06/08 09:23:48;;;;;;;28.52;19.85;;;18.90;99.90;;;;;;6177807;23;20096;-79
2021/06/08 09:26:16;;;;;;;27.88;19.05;;;19.00;99.90;;;;;;6153140;23;20017;-79
2021/06/08 09:28:43;;;;;;;23.13;16.25;;;19.30;99.90;;;;;;6176960;23;20021;-79
2021/06/08 09:31:14;;;;;;;25.85;17.58;;;19.40;99.90;;;;;;6177878;23;20426;-78
2021/06/08 09:33:45;;;;;;;30.92;20.05;;;19.70;99.90;;;;;;6164530;23;20017;-80
2021/06/08 09:36:23;;;;;;;26.55;18.90;;;19.90;99.90;;;;;;6164845;23;20013;-79
2021/06/08 09:38:54;;;;;;;23.63;16.42;;;19.70;99.90;;;;;;6177205;23;20018;-80
2021/06/08 09:41:30;;;;;;;28.80;18.95;;;19.80;99.90;;;;;;6153535;23;20018;-79
2021/06/08 09:44:06;;;;;;;34.28;20.20;;;19.90;99.90;;;;;;6155283;23;20307;-80
2021/06/08 09:46:33;;;;;;;27.48;18.63;;;19.90;99.90;;;;;;6161475;23;20434;-80
2021/06/08 09:49:05;;;;;;;24.55;16.95;;;20.10;99.90;;;;;;6165310;23;20076;-79
2021/06/08 09:51:56;;;;;;;21.08;15.23;;;20.20;99.90;;;;;;6152527;23;20021;-80
2021/06/08 09:54:41;;;;;;;26.63;15.00;;;20.40;99.90;;;;;;6163373;23;20037;-79
2021/06/08 09:57:23;;;;;;;22.15;15.48;;;20.30;99.90;;;;;;6154476;23;20014;-79
2021/06/08 09:59:58;;;;;;;21.67;14.68;;;20.50;99.90;;;;;;6153164;23;20018;-79
2021/06/08 10:02:27;;;;;;;28.10;19.38;;;20.80;99.90;;;;;;6177680;23;20017;-80
2021/06/08 10:05:13;;;;;;;29.77;16.30;;;21.20;99.90;;;;;;6126439;23;20084;-81
2021/06/08 10:07:42;;;;;;;21.30;15.15;;;21.30;99.90;;;;;;6154602;23;20020;-81
2021/06/08 10:10:10;;;;;;;27.00;14.15;;;21.20;99.90;;;;;;6164745;23;20067;-80
2021/06/08 10:12:59;;;;;;;20.92;14.55;;;21.20;99.90;;;;;;6151394;23;20354;-81
2021/06/08 10:15:27;;;;;;;16.65;12.77;;;21.10;99.90;;;;;;6152975;23;20515;-80
2021/06/08 10:18:04;;;;;;;28.08;13.60;;;21.20;99.90;;;;;;6176915;23;20387;-81
2021/06/08 10:20:39;;;;;;;20.95;14.07;;;21.10;99.90;;;;;;6127735;23;20013;-82
2021/06/08 10:23:19;;;;;;;18.80;13.07;;;21.20;99.90;;;;;;6151184;23;20009;-81
2021/06/08 10:25:45;;;;;;;18.70;9.50;;;21.50;99.90;;;;;;6163631;23;20037;-81
2021/06/08 10:28:12;;;;;;;15.00;10.70;;;21.80;99.90;;;;;;6176843;23;20020;-80
2021/06/08 10:30:43;;;;;;;10.77;7.65;;;21.80;99.90;;;;;;6138422;23;20017;-80
2021/06/08 10:33:22;;;;;;;11.77;7.57;;;21.80;99.90;;;;;;6185275;23;20045;-78
2021/06/08 10:35:50;;;;;;;12.52;9.88;;;21.80;99.90;;;;;;6162365;23;20032;-80
2021/06/08 10:38:16;;;;;;;12.73;9.27;;;22.00;99.90;;;;;;6186136;23;20027;-81
2021/06/08 10:40:48;;;;;;;16.77;10.40;;;22.30;99.90;;;;;;6177313;23;20072;-81
2021/06/08 10:43:17;;;;;;;12.90;9.48;;;22.80;99.90;;;;;;6153070;23;20342;-78
2021/06/08 10:45:44;;;;;;;15.45;10.75;;;23.10;99.90;;;;;;6154369;23;20017;-80
2021/06/08 10:48:16;;;;;;;18.10;11.68;;;23.00;99.90;;;;;;6177631;23;20017;-80
2021/06/08 10:50:47;;;;;;;14.45;10.23;;;22.90;99.90;;;;;;6188230;23;20076;-81
2021/06/08 10:53:33;;;;;;;14.75;10.80;;;23.00;99.90;;;;;;6153454;23;20072;-80
2021/06/08 10:56:01;;;;;;;16.17;11.55;;;23.00;99.90;;;;;;6178827;23;20117;-80
2021/06/08 10:59:00;;;;;;;18.10;12.85;;;23.10;99.90;;;;;;6152602;23;20100;-81
2021/06/08 11:01:30;;;;;;;16.30;12.05;;;23.10;99.90;;;;;;6128399;23;20013;-80
2021/06/08 11:04:01;;;;;;;14.68;11.13;;;23.10;99.90;;;;;;6153303;23;20737;-81
2021/06/08 11:06:53;;;;;;;13.20;11.10;;;23.10;99.90;;;;;;6154735;23;20018;-80
2021/06/08 11:09:32;;;;;;;16.75;11.45;;;22.90;99.90;;;;;;6151902;23;20009;-82
2021/06/08 11:12:09;;;;;;;11.75;9.52;;;23.20;99.90;;;;;;6152945;23;20370;-81
2021/06/08 11:17:13;;;;;;;10.05;8.65;;;23.30;99.90;;;;;;6175977;23;20013;-81
2021/06/08 11:19:52;;;;;;;12.77;8.35;;;23.40;99.70;;;;;;6167517;23;20043;-81
2021/06/08 11:22:24;;;;;;;12.68;9.32;;;23.80;99.70;;;;;;6157087;23;20120;-81
2021/06/08 11:24:52;;;;;;;14.00;9.27;;;23.60;99.40;;;;;;6185423;23;20013;-81
2021/06/08 11:27:18;;;;;;;11.05;9.15;;;23.50;99.30;;;;;;6159538;23;20012;-84
2021/06/08 11:29:56;;;;;;;10.70;9.15;;;23.60;99.60;;;;;;6159387;23;20087;-85
2021/06/08 11:32:32;;;;;;;11.20;8.27;;;23.60;99.00;;;;;;6185467;23;20020;-81
2021/06/08 11:35:17;;;;;;;8.55;7.40;;;24.20;99.20;;;;;;6158902;23;20043;-83
2021/06/08 11:37:57;;;;;;;8.73;7.43;;;24.40;99.90;;;;;;6158685;23;20418;-81
2021/06/08 11:40:38;;;;;;;7.95;6.03;;;24.60;99.30;;;;;;6168781;23;20017;-82
2021/06/08 11:43:10;;;;;;;12.20;5.75;;;24.50;97.40;;;;;;6194280;23;20036;-80
2021/06/08 11:45:39;;;;;;;7.07;5.60;;;24.30;96.80;;;;;;6195519;23;20318;-82
2021/06/08 11:48:28;;;;;;;6.95;6.07;;;24.50;98.00;;;;;;6158333;23;20038;-78
2021/06/08 11:50:55;;;;;;;8.15;6.20;;;24.30;96.50;;;;;;6183797;23;20023;-78
2021/06/08 11:53:20;;;;;;;8.85;6.40;;;24.30;95.90;;;;;;6158265;23;20017;-78
2021/06/08 11:56:03;;;;;;;8.73;5.93;;;24.20;96.70;;;;;;6159438;23;20126;-78
2021/06/08 11:58:39;;;;;;;9.82;5.82;;;24.50;95.80;;;;;;6158620;23;20096;-78
2021/06/08 12:01:06;;;;;;;7.68;6.05;;;24.60;95.30;;;;;;6168365;23;20017;-78
2021/06/08 12:03:37;;;;;;;7.90;6.50;;;24.90;95.90;;;;;;6163662;23;20037;-80
2021/06/08 12:06:07;;;;;;;8.40;5.47;;;25.20;95.50;;;;;;6133430;23;20009;-82
2021/06/08 12:08:36;;;;;;;6.00;5.25;;;25.20;94.80;;;;;;6183739;23;20005;-82
2021/06/08 12:11:14;;;;;;;7.15;5.70;;;24.90;93.50;;;;;;6157919;23;20021;-81
2021/06/08 12:13:42;;;;;;;5.28;3.83;;;25.40;93.70;;;;;;6193048;23;20044;-83
2021/06/08 12:16:47;;;;;;;5.72;4.07;;;25.40;92.80;;;;;;6190388;23;20072;-79
2021/06/08 12:19:13;;;;;;;7.10;3.30;;;25.30;92.20;;;;;;6157577;23;20409;-78
2021/06/08 12:21:43;;;;;;;5.40;4.18;;;25.70;92.10;;;;;;6183110;23;20016;-79
2021/06/08 12:24:14;;;;;;;5.80;4.85;;;25.50;91.90;;;;;;6156938;23;20029;-79
2021/06/08 12:26:53;;;;;;;4.68;4.20;;;25.70;92.50;;;;;;6184282;23;20013;-79
2021/06/08 12:29:19;;;;;;;6.13;4.30;;;25.90;90.10;;;;;;6157423;23;20013;-78
2021/06/08 12:32:02;;;;;;;5.57;4.60;;;25.50;90.70;;;;;;6157033;23;20067;-79
2021/06/08 12:34:37;;;;;;;7.13;4.38;;;25.50;89.10;;;;;;6183158;23;20028;-80
2021/06/08 12:37:03;;;;;;;5.45;4.07;;;25.40;90.10;;;;;;6156222;23;20013;-79
2021/06/08 12:39:32;;;;;;;4.35;3.95;;;25.70;90.30;;;;;;6159178;23;20017;-79
2021/06/08 12:42:14;;;;;;;5.55;4.30;;;25.70;90.40;;;;;;6157736;23;20289;-79
2021/06/08 12:44:40;;;;;;;5.25;3.50;;;26.10;89.90;;;;;;6195014;23;20092;-80
2021/06/08 12:47:07;;;;;;;3.95;3.50;;;26.10;88.10;;;;;;6184420;23;20055;-81
2021/06/08 12:49:36;;;;;;;4.80;4.03;;;25.80;88.20;;;;;;6157659;23;20394;-80
2021/06/08 12:52:05;;;;;;;4.53;3.58;;;25.90;86.00;;;;;;6168327;23;20013;-80
2021/06/08 12:54:42;;;;;;;8.57;4.40;;;26.70;90.20;;;;;;6166348;23;20013;-81